Time;durP1;ratioP1;P1;durP2;ratioP2;P2;SDS_P1;SDS_P2;PMS_P1;PMS_P2;Temp;Humidity;BMP_temperature;BMP_pressure;BME280_temperature;BME280_humidity;BME280_pressure;Samples;Min_cycle;Max_cycle;Signal;HPM_P1;HPM_P2
2022/04/21 00:00:16;;;;;;;15.38;12.48;;;5.50;99.90;;;;;;5045022;28;20044;-50
2022/04/21 00:02:43;;;;;;;14.95;11.68;;;5.60;99.90;;;;;;5088951;28;20360;-49
2022/04/21 00:05:10;;;;;;;11.43;9.27;;;5.50;99.90;;;;;;5085989;28;20101;-50
2022/04/21 00:07:37;;;;;;;16.75;11.77;;;5.50;99.90;;;;;;5081296;28;20032;-51
2022/04/21 00:10:07;;;;;;;12.95;9.70;;;5.50;99.90;;;;;;5085710;28;20025;-50
2022/04/21 00:12:34;;;;;;;9.07;5.57;;;5.50;99.90;;;;;;5040257;28;20039;-50
2022/04/21 00:15:01;;;;;;;8.98;7.05;;;5.40;99.90;;;;;;5088275;28;20055;-50
2022/04/21 00:17:27;;;;;;;15.90;13.00;;;5.30;99.90;;;;;;5090637;28;20084;-49
2022/04/21 00:19:53;;;;;;;14.90;11.38;;;5.40;99.90;;;;;;5083315;28;20119;-50
2022/04/21 00:25:03;;;;;;;13.93;11.63;;;5.40;99.90;;;;;;5081848;28;20198;-49
2022/04/21 00:27:29;;;;;;;14.95;10.10;;;5.30;99.90;;;;;;5085696;28;20065;-49
2022/04/21 00:29:56;;;;;;;12.15;8.88;;;5.40;99.90;;;;;;5081376;28;20127;-50
2022/04/21 00:32:22;;;;;;;13.70;10.07;;;5.50;99.90;;;;;;5085380;28;20043;-50
2022/04/21 00:34:47;;;;;;;14.30;11.98;;;5.50;99.90;;;;;;5092060;28;20036;-50
2022/04/21 00:37:13;;;;;;;16.30;12.23;;;5.50;99.90;;;;;;5083045;28;20060;-50
2022/04/21 00:39:39;;;;;;;14.95;13.43;;;5.60;99.90;;;;;;5079463;28;20386;-49
2022/04/21 00:42:05;;;;;;;16.20;12.57;;;5.80;99.90;;;;;;5088926;28;20432;-50
2022/04/21 00:44:31;;;;;;;16.73;13.00;;;5.60;99.90;;;;;;5057414;28;20044;-49
2022/04/21 00:47:02;;;;;;;18.75;14.50;;;5.60;99.90;;;;;;5090933;28;20032;-50
2022/04/21 00:49:30;;;;;;;17.63;14.63;;;5.60;99.90;;;;;;5090444;28;20547;-49
2022/04/21 00:51:58;;;;;;;16.80;14.38;;;5.50;99.90;;;;;;5090912;28;20032;-51
2022/04/21 00:54:24;;;;;;;17.80;14.73;;;5.50;99.90;;;;;;5087316;28;20048;-50
2022/04/21 00:56:50;;;;;;;17.10;14.90;;;5.40;99.90;;;;;;5074028;28;20089;-50
2022/04/21 00:59:16;;;;;;;21.17;16.15;;;5.40;99.90;;;;;;5073937;28;20459;-50
2022/04/21 01:04:28;;;;;;;20.40;15.43;;;5.30;99.90;;;;;;5082448;28;20468;-50
2022/04/21 01:06:55;;;;;;;23.02;15.75;;;5.30;99.90;;;;;;5094835;28;20060;-51
2022/04/21 01:09:21;;;;;;;20.30;16.38;;;5.30;99.90;;;;;;5087221;28;20021;-50
2022/04/21 01:11:50;;;;;;;19.25;16.25;;;5.30;99.90;;;;;;5057069;28;20538;-50
2022/04/21 01:14:17;;;;;;;19.92;16.27;;;;;;;;;;5089123;28;20040;-50
2022/04/21 01:16:43;;;;;;;21.73;16.83;;;;;;;;;;5088975;28;20107;-51
2022/04/21 01:19:10;;;;;;;19.90;15.75;;;;;;;;;;5088360;28;20028;-50
2022/04/21 01:21:36;;;;;;;20.83;16.23;;;;;;;;;;5079408;28;20033;-49
2022/04/21 01:24:04;;;;;;;18.90;15.88;;;;;;;;;;5112017;28;20044;-50
2022/04/21 01:26:35;;;;;;;20.35;16.27;;;;;;;;;;5105844;28;20070;-50
2022/04/21 01:29:07;;;;;;;20.30;16.20;;;4.80;99.90;;;;;;5107899;28;20475;-49
2022/04/21 01:31:33;;;;;;;24.33;16.92;;;;;;;;;;5102420;28;20521;-50
2022/04/21 01:34:00;;;;;;;20.02;16.35;;;;;;;;;;5105350;28;20162;-51
2022/04/21 01:36:26;;;;;;;19.15;16.23;;;;;;;;;;5104720;28;20020;-50
2022/04/21 01:41:36;;;;;;;19.95;15.75;;;;;;;;;;5102606;28;20035;-49
2022/04/21 01:44:03;;;;;;;20.45;16.60;;;;;;;;;;5079043;28;20047;-50
2022/04/21 01:46:29;;;;;;;20.88;16.75;;;;;;;;;;5106761;28;20091;-50
2022/04/21 01:48:55;;;;;;;19.35;16.75;;;;;;;;;;5107415;28;20031;-49
2022/04/21 01:51:21;;;;;;;20.05;14.82;;;4.80;99.90;;;;;;5103382;28;20042;-50
2022/04/21 01:53:47;;;;;;;18.83;15.80;;;;;;;;;;5095610;28;20134;-50
2022/04/21 01:56:13;;;;;;;20.38;16.65;;;;;;;;;;5091843;28;20463;-49
2022/04/21 01:58:40;;;;;;;18.75;16.35;;;;;;;;;;5087367;28;20024;-49
2022/04/21 02:01:06;;;;;;;23.88;18.38;;;5.00;99.90;;;;;;5068950;28;20040;-50
2022/04/21 02:03:32;;;;;;;20.58;17.20;;;5.00;99.90;;;;;;5092286;28;20016;-49
2022/04/21 02:05:59;;;;;;;20.77;17.23;;;5.00;99.90;;;;;;5092420;28;20067;-50
2022/04/21 02:08:27;;;;;;;20.35;17.60;;;5.10;99.90;;;;;;5086558;28;20379;-49
2022/04/21 02:10:53;;;;;;;21.33;15.57;;;5.00;99.90;;;;;;5087329;28;20395;-50
2022/04/21 02:13:19;;;;;;;17.52;12.57;;;4.90;99.90;;;;;;5094120;28;20446;-50
2022/04/21 02:15:45;;;;;;;17.65;14.80;;;4.50;99.90;;;;;;5088234;28;20060;-50
2022/04/21 02:18:11;;;;;;;19.73;17.40;;;4.40;99.90;;;;;;5080822;28;20501;-49
2022/04/21 02:20:37;;;;;;;20.10;17.08;;;4.50;99.90;;;;;;5079180;28;20396;-49
2022/04/21 02:23:02;;;;;;;21.65;16.80;;;4.60;99.90;;;;;;5093808;28;20016;-49
2022/04/21 02:25:28;;;;;;;19.35;16.02;;;4.50;99.90;;;;;;5085560;28;20035;-49
2022/04/21 02:27:54;;;;;;;20.17;15.90;;;4.50;99.90;;;;;;5079682;28;20035;-50
2022/04/21 02:30:20;;;;;;;17.45;13.75;;;4.60;99.90;;;;;;5082757;28;20024;-49
2022/04/21 02:32:46;;;;;;;12.70;10.60;;;4.30;99.90;;;;;;5090921;28;20471;-50
2022/04/21 02:35:15;;;;;;;18.30;13.98;;;4.00;99.90;;;;;;5089306;28;20043;-50
2022/04/21 02:37:46;;;;;;;16.83;13.10;;;3.90;99.90;;;;;;5090809;28;20028;-50
2022/04/21 02:40:14;;;;;;;17.77;14.43;;;3.80;99.90;;;;;;5083029;28;20024;-49
2022/04/21 02:42:40;;;;;;;16.73;13.80;;;4.10;99.90;;;;;;5079384;28;20515;-49
2022/04/21 02:45:07;;;;;;;16.50;14.75;;;4.20;99.90;;;;;;5072315;28;20064;-49
2022/04/21 02:47:35;;;;;;;17.60;15.02;;;4.20;99.90;;;;;;5074444;28;20376;-50
2022/04/21 02:50:01;;;;;;;15.98;13.20;;;4.10;99.90;;;;;;5085630;28;20024;-50
2022/04/21 02:52:28;;;;;;;17.45;14.77;;;4.10;99.90;;;;;;5089212;28;20028;-50
2022/04/21 02:57:38;;;;;;;20.75;14.35;;;4.30;99.90;;;;;;5093425;28;20038;-50
2022/04/21 03:00:06;;;;;;;18.95;15.60;;;4.20;99.90;;;;;;5104669;28;20097;-49
2022/04/21 03:02:32;;;;;;;18.63;14.70;;;4.30;99.90;;;;;;5031881;28;20135;-50
2022/04/21 03:04:58;;;;;;;16.25;14.43;;;4.50;99.90;;;;;;5085379;28;20103;-49
2022/04/21 03:07:24;;;;;;;16.00;12.27;;;4.50;99.90;;;;;;5073964;28;20558;-50
2022/04/21 03:09:53;;;;;;;17.15;14.13;;;4.30;99.90;;;;;;5091899;28;20353;-50
2022/04/21 03:12:21;;;;;;;14.85;12.98;;;4.30;99.90;;;;;;5088280;28;20409;-49
2022/04/21 03:14:49;;;;;;;15.38;13.00;;;4.30;99.90;;;;;;5084660;28;20032;-50
2022/04/21 03:17:15;;;;;;;18.13;13.70;;;4.20;99.90;;;;;;5086047;28;20036;-49
2022/04/21 03:19:41;;;;;;;16.27;13.35;;;4.30;99.90;;;;;;5090134;28;20391;-50
2022/04/21 03:24:54;;;;;;;19.58;15.30;;;4.10;99.90;;;;;;5086009;28;20043;-50
2022/04/21 03:27:20;;;;;;;19.05;14.52;;;4.20;99.90;;;;;;5082336;28;20024;-49
2022/04/21 03:29:46;;;;;;;21.02;15.48;;;;;;;;;;5090828;28;20479;-49
2022/04/21 03:32:14;;;;;;;18.20;14.63;;;;;;;;;;5092909;28;20081;-49
2022/04/21 03:34:44;;;;;;;15.20;11.85;;;;;;;;;;5087193;28;20044;-50
2022/04/21 03:37:11;;;;;;;17.95;14.50;;;;;;;;;;5088339;28;20115;-51
2022/04/21 03:39:38;;;;;;;16.08;14.30;;;;;;;;;;5083025;28;20021;-51
2022/04/21 03:42:04;;;;;;;18.92;15.48;;;;;;;;;;5082107;28;20574;-50
2022/04/21 03:44:30;;;;;;;17.95;15.02;;;4.30;99.90;;;;;;5086509;28;20048;-50
2022/04/21 03:46:57;;;;;;;20.10;15.70;;;4.50;99.90;;;;;;5085428;28;20028;-49
2022/04/21 03:49:30;;;;;;;18.00;15.02;;;4.70;99.90;;;;;;5083179;28;20468;-49
2022/04/21 03:51:56;;;;;;;;;;;4.80;99.90;;;;;;5088945;28;20040;-49
2022/04/21 03:54:22;;;;;;;17.80;15.18;;;4.90;99.90;;;;;;5085997;28;20018;-49
2022/04/21 03:56:51;;;;;;;17.92;14.90;;;5.20;99.90;;;;;;5089370;28;20399;-49
2022/04/21 03:59:18;;;;;;;18.35;16.33;;;5.40;99.90;;;;;;5067965;28;20040;-50
2022/04/21 04:01:44;;;;;;;18.70;16.60;;;5.20;99.90;;;;;;5067062;28;20086;-50
2022/04/21 04:04:11;;;;;;;19.27;15.52;;;5.40;99.90;;;;;;5068395;28;20040;-49
2022/04/21 04:12:07;;;;;;;27.92;20.65;;;4.80;99.90;;;;;;5081617;28;20519;-49
2022/04/21 04:14:33;;;;;;;19.52;16.08;;;5.00;99.90;;;;;;5082224;28;21435;-50
2022/04/21 04:16:59;;;;;;;20.63;16.67;;;5.00;99.90;;;;;;5089276;28;20115;-50
2022/04/21 04:19:24;;;;;;;19.00;16.25;;;5.00;99.90;;;;;;5093756;28;20111;-50
2022/04/21 04:21:51;;;;;;;20.52;17.02;;;5.20;99.90;;;;;;5088458;28;20122;-50
2022/04/21 04:24:17;;;;;;;26.13;19.75;;;5.30;99.90;;;;;;5087276;28;20532;-50
2022/04/21 04:26:43;;;;;;;29.80;21.02;;;5.40;99.90;;;;;;5091341;28;20035;-49
2022/04/21 04:29:09;;;;;;;32.88;23.58;;;5.50;99.90;;;;;;5089019;28;20035;-50
2022/04/21 04:31:36;;;;;;;45.42;29.60;;;5.60;99.90;;;;;;5058768;28;20046;-50
2022/04/21 04:34:02;;;;;;;33.05;23.70;;;5.80;99.90;;;;;;5086879;28;20444;-50
2022/04/21 04:36:28;;;;;;;24.45;20.20;;;6.00;99.90;;;;;;5085154;28;20186;-49
2022/04/21 04:38:54;;;;;;;20.85;16.85;;;5.70;99.90;;;;;;5090122;28;20024;-50
2022/04/21 04:44:04;;;;;;;21.33;16.90;;;5.60;99.90;;;;;;5086675;28;20491;-50
2022/04/21 04:46:37;;;;;;;18.35;16.13;;;5.70;99.90;;;;;;5034580;28;20448;-50
2022/04/21 04:49:08;;;;;;;22.23;19.55;;;6.00;99.90;;;;;;5058270;28;20044;-49
2022/04/21 04:51:37;;;;;;;25.55;20.52;;;6.10;99.90;;;;;;5088433;28;20040;-49
2022/04/21 04:54:05;;;;;;;22.85;18.90;;;6.30;99.90;;;;;;5091727;28;20048;-50
2022/04/21 04:56:30;;;;;;;23.85;18.77;;;6.60;99.90;;;;;;5089116;28;20050;-49
2022/04/21 04:58:57;;;;;;;17.83;15.93;;;6.70;99.90;;;;;;5083070;28;20446;-50
2022/04/21 05:01:32;;;;;;;20.35;17.10;;;6.70;99.90;;;;;;5082518;28;20497;-49
2022/04/21 05:04:06;;;;;;;20.90;16.73;;;6.50;99.90;;;;;;5086373;28;20387;-50
2022/04/21 05:06:40;;;;;;;20.20;16.38;;;6.50;99.90;;;;;;5083910;28;20024;-50
2022/04/21 05:09:13;;;;;;;24.55;20.88;;;6.70;99.90;;;;;;5084573;28;20024;-49
2022/04/21 05:11:40;;;;;;;22.92;18.02;;;6.50;99.90;;;;;;5088810;28;20068;-49
2022/04/21 05:14:07;;;;;;;18.92;16.63;;;6.60;99.90;;;;;;5091886;28;20036;-47
2022/04/21 05:16:36;;;;;;;18.98;16.60;;;;;;;;;;5088541;28;20047;-49
2022/04/21 05:19:13;;;;;;;18.50;16.60;;;7.10;99.90;;;;;;5083472;28;20499;-53
2022/04/21 05:21:40;;;;;;;17.83;15.93;;;7.30;99.90;;;;;;5073285;28;20060;-53
2022/04/21 05:24:07;;;;;;;24.67;21.73;;;7.70;99.90;;;;;;5072953;28;20040;-55
2022/04/21 05:26:34;;;;;;;22.08;18.90;;;7.40;99.90;;;;;;5083148;28;20044;-51
2022/04/21 05:29:01;;;;;;;19.27;16.42;;;;;;;;;;5098996;28;20048;-52
2022/04/21 05:31:27;;;;;;;29.60;22.42;;;;;;;;;;5093417;28;20047;-53
2022/04/21 05:33:54;;;;;;;20.52;17.80;;;7.50;99.90;;;;;;5094872;28;20032;-53
2022/04/21 05:36:21;;;;;;;19.55;17.23;;;7.40;99.90;;;;;;5088010;28;20383;-53
2022/04/21 05:38:49;;;;;;;20.77;17.17;;;7.50;99.90;;;;;;5087668;28;20060;-52
2022/04/21 05:41:16;;;;;;;24.15;20.20;;;7.50;99.90;;;;;;5067410;28;20051;-53
2022/04/21 05:43:44;;;;;;;20.10;17.52;;;;;;;;;;5073041;28;20060;-51
2022/04/21 05:46:11;;;;;;;24.08;18.30;;;;;;;;;;5072298;28;20045;-53
2022/04/21 05:48:38;;;;;;;23.02;20.17;;;7.40;99.90;;;;;;5072153;28;20546;-52
2022/04/21 05:51:05;;;;;;;23.77;19.13;;;7.60;99.90;;;;;;5072002;28;20033;-54
2022/04/21 05:53:38;;;;;;;23.40;19.70;;;7.60;99.90;;;;;;5027225;28;20563;-52
2022/04/21 05:56:06;;;;;;;27.02;21.40;;;7.90;99.90;;;;;;5048439;28;20075;-54
2022/04/21 05:58:33;;;;;;;27.38;21.98;;;8.10;99.90;;;;;;5032700;28;20124;-54
2022/04/21 06:01:06;;;;;;;27.70;22.67;;;8.10;99.90;;;;;;5071743;28;20052;-54
2022/04/21 06:03:32;;;;;;;36.58;26.77;;;;;;;;;;5072635;28;20030;-52
2022/04/21 06:05:58;;;;;;;30.85;23.95;;;8.60;99.90;;;;;;5070647;28;20040;-53
2022/04/21 06:08:24;;;;;;;27.65;22.42;;;8.90;99.90;;;;;;5071644;28;20115;-54
2022/04/21 06:10:50;;;;;;;27.92;20.98;;;9.00;99.90;;;;;;5037227;28;20084;-53
2022/04/21 06:13:16;;;;;;;28.27;20.90;;;8.80;99.90;;;;;;5088607;28;20502;-52
2022/04/21 06:15:43;;;;;;;21.73;18.15;;;8.90;99.90;;;;;;5075119;28;20048;-54
2022/04/21 06:18:09;;;;;;;22.70;18.00;;;8.70;99.90;;;;;;5088301;28;20534;-54
2022/04/21 06:20:35;;;;;;;18.58;16.58;;;9.00;99.90;;;;;;5090812;28;20067;-52
2022/04/21 06:23:01;;;;;;;22.65;18.17;;;9.10;99.90;;;;;;5089293;28;20431;-53
2022/04/21 06:25:27;;;;;;;21.75;17.60;;;9.20;99.90;;;;;;5080809;28;20021;-53
2022/04/21 06:27:53;;;;;;;23.40;18.42;;;9.20;99.90;;;;;;5088249;28;20078;-52
2022/04/21 06:30:19;;;;;;;22.17;18.77;;;9.40;99.90;;;;;;5086752;28;20107;-53
2022/04/21 06:32:46;;;;;;;25.08;20.65;;;9.20;99.90;;;;;;5083466;28;20028;-53
2022/04/21 06:35:12;;;;;;;21.30;18.38;;;9.20;99.90;;;;;;5084991;28;21968;-54
2022/04/21 06:37:39;;;;;;;24.67;19.67;;;9.20;99.90;;;;;;5084112;28;20032;-52
2022/04/21 06:40:06;;;;;;;23.60;20.65;;;9.40;99.90;;;;;;5054448;28;20403;-53
2022/04/21 06:42:32;;;;;;;25.67;20.15;;;9.10;99.90;;;;;;5086216;28;20059;-52
2022/04/21 06:50:26;;;;;;;21.83;18.38;;;9.30;99.90;;;;;;5085853;28;20044;-54
2022/04/21 06:52:52;;;;;;;21.40;16.27;;;9.30;99.90;;;;;;5083114;28;20032;-54
2022/04/21 06:55:18;;;;;;;23.13;18.60;;;9.10;99.90;;;;;;5071212;28;20052;-51
2022/04/21 06:57:43;;;;;;;20.45;17.02;;;9.10;99.90;;;;;;5093127;28;20024;-53
2022/04/21 07:00:09;;;;;;;17.60;14.75;;;9.40;99.90;;;;;;5083605;28;20082;-51
2022/04/21 07:02:38;;;;;;;20.10;16.85;;;9.30;99.90;;;;;;5086519;28;20047;-52
2022/04/21 07:05:12;;;;;;;17.95;16.05;;;9.30;99.90;;;;;;5099201;28;20051;-53
2022/04/21 07:07:41;;;;;;;16.67;14.82;;;10.00;99.90;;;;;;5071131;28;20058;-53
2022/04/21 07:10:07;;;;;;;15.32;13.73;;;9.80;99.90;;;;;;5087185;28;20070;-54
2022/04/21 07:12:34;;;;;;;16.58;13.90;;;9.90;99.90;;;;;;5072276;28;20503;-54
2022/04/21 07:15:02;;;;;;;14.73;13.13;;;9.90;99.90;;;;;;5090494;28;20491;-52
2022/04/21 07:17:28;;;;;;;16.83;15.10;;;10.40;99.90;;;;;;5089046;28;20024;-53
2022/04/21 07:19:54;;;;;;;18.30;14.15;;;;;;;;;;5083418;28;20498;-54
2022/04/21 07:22:21;;;;;;;16.63;14.48;;;11.20;99.90;;;;;;5090388;28;20096;-53
2022/04/21 07:24:47;;;;;;;15.93;13.85;;;11.70;99.90;;;;;;5087817;28;20040;-55
2022/04/21 07:27:14;;;;;;;16.13;14.35;;;11.80;99.90;;;;;;5086232;28;20028;-53
2022/04/21 07:29:40;;;;;;;14.75;13.15;;;11.60;99.90;;;;;;5084045;28;20028;-54
2022/04/21 07:32:06;;;;;;;15.40;13.65;;;11.30;99.90;;;;;;5086968;28;20024;-53
2022/04/21 07:34:32;;;;;;;15.55;13.90;;;11.30;99.90;;;;;;5056908;28;20044;-54
2022/04/21 07:36:58;;;;;;;17.15;14.77;;;11.40;99.90;;;;;;5088272;28;20031;-53
2022/04/21 07:39:24;;;;;;;18.10;16.20;;;11.20;99.90;;;;;;5085557;28;20028;-52
2022/04/21 07:41:50;;;;;;;15.23;13.50;;;11.00;99.90;;;;;;5087394;28;20071;-53
2022/04/21 07:44:16;;;;;;;15.25;13.27;;;;;;;;;;5086420;28;20139;-55
2022/04/21 07:46:42;;;;;;;14.98;13.38;;;11.10;99.90;;;;;;5086670;28;20032;-53
2022/04/21 07:53:12;;;;;;;15.55;13.95;;;11.90;99.90;;;;;;5089573;28;20399;-54
2022/04/21 07:54:38;;;;;;;14.57;12.95;;;12.10;99.90;;;;;;5087042;28;20364;-54
2022/04/21 07:57:04;;;;;;;14.32;12.65;;;;;;;;;;5074992;28;20067;-55
2022/04/21 07:59:31;;;;;;;17.75;15.30;;;;;;;;;;5094944;28;20044;-55
2022/04/21 08:01:57;;;;;;;16.15;14.45;;;;;;;;;;5084324;28;20032;-54
2022/04/21 08:04:22;;;;;;;17.95;13.82;;;12.90;99.90;;;;;;5086975;28;20041;-55
2022/04/21 08:06:49;;;;;;;15.00;13.10;;;;;;;;;;5087845;28;20033;-54
2022/04/21 08:09:15;;;;;;;16.02;14.43;;;;;;;;;;5087340;28;20024;-53
2022/04/21 08:11:41;;;;;;;15.65;13.10;;;;;;;;;;5080978;28;20077;-54
2022/04/21 08:14:07;;;;;;;13.93;12.55;;;14.00;99.90;;;;;;5078346;28;20055;-53
2022/04/21 08:16:34;;;;;;;13.25;11.55;;;;;;;;;;5084013;28;20051;-53
2022/04/21 08:19:00;;;;;;;13.80;12.40;;;14.00;99.90;;;;;;5083322;28;20029;-53
2022/04/21 08:21:26;;;;;;;14.27;12.85;;;14.10;99.90;;;;;;5076778;28;20480;-53
2022/04/21 08:23:52;;;;;;;12.63;11.38;;;13.80;99.90;;;;;;5086455;28;20036;-56
2022/04/21 08:34:39;;;;;;;12.82;10.27;;;;;;;;;;5076896;28;20083;-47
2022/04/21 08:37:05;;;;;;;12.85;10.55;;;15.80;99.90;;;;;;5085539;28;20032;-50
2022/04/21 08:39:31;;;;;;;15.40;11.60;;;;;;;;;;5090717;28;20024;-49
2022/04/21 08:42:08;;;;;;;11.00;9.40;;;16.30;99.90;;;;;;5090332;28;20028;-49
2022/04/21 08:44:39;;;;;;;10.43;9.32;;;15.90;99.90;;;;;;5083441;28;20060;-49
2022/04/21 08:47:09;;;;;;;10.98;9.80;;;15.30;99.90;;;;;;5087785;28;20120;-48
2022/04/21 08:49:36;;;;;;;13.02;10.75;;;15.90;99.90;;;;;;5093055;28;20036;-48
2022/04/21 08:52:02;;;;;;;11.05;9.95;;;15.60;99.90;;;;;;5090361;28;20032;-48
2022/04/21 08:54:30;;;;;;;11.32;9.52;;;15.90;99.90;;;;;;5089348;28;20117;-49
2022/04/21 08:56:57;;;;;;;10.52;9.43;;;15.80;99.90;;;;;;5090412;28;20032;-49
2022/04/21 08:59:23;;;;;;;14.50;12.02;;;15.30;99.90;;;;;;5085078;28;20426;-49
2022/04/21 09:01:49;;;;;;;15.05;13.45;;;15.30;99.90;;;;;;5089169;28;20044;-49
2022/04/21 09:04:15;;;;;;;12.73;11.40;;;15.50;99.90;;;;;;5080286;28;20028;-49
2022/04/21 09:06:41;;;;;;;13.63;12.20;;;15.70;99.90;;;;;;5092825;28;20099;-48
2022/04/21 09:09:14;;;;;;;11.02;9.88;;;15.70;99.90;;;;;;5083193;28;20031;-49
2022/04/21 09:11:42;;;;;;;11.85;10.43;;;16.30;99.90;;;;;;5080492;28;20028;-49
2022/04/21 09:14:15;;;;;;;11.30;9.65;;;16.50;99.90;;;;;;5074837;28;20067;-48
2022/04/21 09:16:41;;;;;;;13.32;10.30;;;16.70;99.90;;;;;;5084571;28;20051;-48
2022/04/21 09:19:07;;;;;;;12.60;10.32;;;;;;;;;;5069436;28;20476;-49
2022/04/21 09:21:37;;;;;;;11.93;9.73;;;;;;;;;;5078288;28;20032;-49
2022/04/21 09:24:23;;;;;;;11.30;9.88;;;;;;;;;;5058910;28;20047;-49
2022/04/21 09:26:50;;;;;;;10.75;9.63;;;;;;;;;;5085195;28;20043;-48
2022/04/21 09:29:23;;;;;;;11.48;9.95;;;18.00;99.90;;;;;;5087149;28;20028;-49
2022/04/21 09:31:57;;;;;;;10.13;8.35;;;17.40;99.90;;;;;;5092480;28;20115;-48
2022/04/21 09:34:23;;;;;;;10.57;8.68;;;17.70;99.90;;;;;;5086896;28;20403;-48
2022/04/21 09:36:49;;;;;;;10.73;9.00;;;;;;;;;;5083316;28;20032;-49
2022/04/21 09:39:15;;;;;;;12.98;10.48;;;18.50;99.90;;;;;;5088976;28;20047;-49
2022/04/21 09:41:44;;;;;;;10.93;9.60;;;18.70;99.90;;;;;;5078978;28;20041;-49
2022/04/21 09:46:59;;;;;;;11.88;10.65;;;19.00;99.90;;;;;;5086247;28;20055;-47
2022/04/21 09:49:44;;;;;;;14.90;11.57;;;19.40;99.90;;;;;;5085088;28;20107;-46
2022/04/21 09:52:10;;;;;;;13.65;10.73;;;;;;;;;;5084239;28;20113;-46
2022/04/21 09:54:36;;;;;;;11.77;10.38;;;;;;;;;;5091553;28;20032;-47
2022/04/21 09:57:03;;;;;;;10.95;9.85;;;;;;;;;;5086800;28;20024;-46
2022/04/21 09:59:34;;;;;;;13.23;11.90;;;20.30;99.90;;;;;;5084709;28;20130;-46
2022/04/21 10:02:02;;;;;;;13.60;11.73;;;20.40;99.90;;;;;;5088284;28;20059;-46
2022/04/21 10:04:30;;;;;;;14.23;11.85;;;19.80;99.90;;;;;;5091579;28;20056;-46
2022/04/21 10:06:57;;;;;;;14.02;12.15;;;20.10;99.90;;;;;;5086289;28;20107;-47
2022/04/21 10:09:23;;;;;;;13.70;12.25;;;20.30;99.90;;;;;;5084985;28;20389;-46
2022/04/21 10:11:52;;;;;;;13.00;11.60;;;;;;;;;;5082513;28;20028;-46
2022/04/21 10:14:18;;;;;;;11.80;9.88;;;;;;;;;;5086147;28;20039;-46
2022/04/21 10:16:45;;;;;;;11.45;9.85;;;;;;;;;;5087081;28;20028;-46
2022/04/21 10:19:12;;;;;;;11.02;9.85;;;;;;;;;;5086727;28;20050;-47
2022/04/21 10:21:42;;;;;;;14.73;11.90;;;;;;;;;;5070574;28;20119;-46
2022/04/21 10:24:08;;;;;;;17.25;14.65;;;;;;;;;;5085171;28;20115;-46
2022/04/21 10:26:35;;;;;;;17.33;13.40;;;;;;;;;;5086442;28;20430;-47
2022/04/21 10:29:10;;;;;;;12.88;11.55;;;;;;;;;;5089931;28;20021;-46
2022/04/21 10:31:45;;;;;;;16.70;14.25;;;;;;;;;;5083589;28;20028;-46
2022/04/21 10:34:11;;;;;;;17.13;12.52;;;;;;;;;;5087168;28;20371;-46
2022/04/21 10:36:41;;;;;;;20.42;16.30;;;;;;;;;;5085600;28;20492;-47
2022/04/21 10:39:27;;;;;;;13.43;11.15;;;;;;;;;;5090704;28;20040;-46
2022/04/21 10:42:19;;;;;;;14.52;12.68;;;;;;;;;;5086287;28;20377;-46
2022/04/21 10:44:49;;;;;;;21.30;11.95;;;;;;;;;;5082907;28;20047;-47
2022/04/21 10:47:31;;;;;;;13.65;11.48;;;;;;;;;;5088545;28;20024;-48
2022/04/21 10:50:01;;;;;;;12.30;10.77;;;;;;;;;;5087991;28;20102;-46
2022/04/21 10:57:56;;;;;;;15.88;11.05;;;;;;;;;;5046855;28;20094;-46
2022/04/21 11:00:26;;;;;;;13.30;11.85;;;;;;;;;;5045741;28;20099;-46
2022/04/21 11:03:08;;;;;;;16.83;11.82;;;19.80;99.90;;;;;;5062112;28;20072;-46
2022/04/21 11:05:40;;;;;;;12.32;11.02;;;19.80;99.90;;;;;;5057216;28;20033;-48
2022/04/21 11:08:14;;;;;;;12.95;11.45;;;19.10;98.00;;;;;;5056427;28;20108;-46
2022/04/21 11:10:43;;;;;;;14.50;11.88;;;19.10;98.90;;;;;;5048857;28;20037;-46
2022/04/21 11:13:11;;;;;;;12.20;11.00;;;18.70;99.90;;;;;;5056895;28;20040;-46
2022/04/21 11:15:46;;;;;;;10.13;9.13;;;18.90;99.90;;;;;;5060083;28;20116;-46
2022/04/21 11:18:29;;;;;;;12.05;8.65;;;18.70;99.90;;;;;;5056610;28;20032;-46
2022/04/21 11:21:24;;;;;;;9.43;8.25;;;18.50;99.90;;;;;;5053471;28;20056;-47
2022/04/21 11:23:49;;;;;;;11.23;9.85;;;18.40;99.90;;;;;;5059041;28;20045;-46
2022/04/21 11:26:15;;;;;;;11.05;9.43;;;18.50;99.90;;;;;;5063156;28;20032;-46
2022/04/21 11:28:45;;;;;;;11.60;10.40;;;18.70;99.90;;;;;;5068715;28;20127;-46
2022/04/21 11:31:12;;;;;;;12.07;9.38;;;18.80;99.90;;;;;;5031809;28;20555;-46
2022/04/21 11:33:40;;;;;;;10.60;9.05;;;18.50;99.90;;;;;;5059592;28;20061;-46
2022/04/21 11:36:06;;;;;;;10.23;8.73;;;18.40;99.90;;;;;;5086117;28;20542;-46
2022/04/21 11:38:35;;;;;;;10.30;9.30;;;18.40;99.90;;;;;;5073339;28;20062;-46
2022/04/21 11:41:03;;;;;;;11.02;8.77;;;18.80;99.90;;;;;;5085307;28;20044;-47
2022/04/21 11:43:28;;;;;;;9.13;8.18;;;18.80;99.90;;;;;;5055377;28;20059;-49
2022/04/21 11:45:59;;;;;;;11.25;8.82;;;18.80;99.90;;;;;;5052572;28;20048;-47
2022/04/21 11:48:29;;;;;;;9.02;7.82;;;19.00;99.90;;;;;;5071903;28;20062;-47
2022/04/21 11:50:54;;;;;;;9.10;7.75;;;18.80;99.90;;;;;;5087180;28;20032;-46
2022/04/21 11:53:20;;;;;;;9.48;7.72;;;18.80;99.90;;;;;;5084698;28;20073;-47
2022/04/21 11:55:50;;;;;;;10.45;7.82;;;18.60;99.90;;;;;;5079575;28;20032;-46
2022/04/21 11:58:45;;;;;;;8.82;7.30;;;18.80;99.90;;;;;;5091554;28;20475;-46
2022/04/21 12:06:47;;;;;;;8.55;7.25;;;;;;;;;;5029143;28;20107;-46
2022/04/21 12:09:14;;;;;;;8.05;7.25;;;;;;;;;;5029441;28;20033;-46
2022/04/21 12:11:41;;;;;;;10.32;8.00;;;;;;;;;;5026624;28;20125;-46
2022/04/21 12:14:08;;;;;;;8.20;7.20;;;;;;;;;;5030013;28;20049;-47
2022/04/21 12:16:39;;;;;;;7.65;6.85;;;;;;;;;;5028561;28;20113;-46
2022/04/21 12:19:17;;;;;;;8.52;7.35;;;;;;;;;;5025461;28;20045;-47
2022/04/21 12:22:06;;;;;;;9.00;6.97;;;;;;;;;;5021797;28;20033;-47
2022/04/21 12:24:32;;;;;;;7.38;5.50;;;;;;;;;;4995749;28;20044;-47
2022/04/21 12:26:59;;;;;;;7.40;5.10;;;;;;;;;;4977378;28;20045;-47
2022/04/21 12:29:27;;;;;;;6.50;5.40;;;;;;;;;;4996459;28;20042;-46
2022/04/21 12:31:54;;;;;;;7.75;5.80;;;;;;;;;;5003576;28;20046;-46
2022/04/21 12:34:31;;;;;;;8.32;5.53;;;;;;;;;;5005744;28;20077;-47
2022/04/21 12:36:57;;;;;;;6.47;5.55;;;;;;;;;;5014724;28;20045;-47
2022/04/21 12:39:23;;;;;;;7.68;5.53;;;;;;;;;;5048279;28;20484;-47
2022/04/21 12:41:51;;;;;;;5.68;5.10;;;;;;;;;;5046811;28;20041;-47
2022/04/21 12:44:19;;;;;;;6.07;5.43;;;;;;;;;;5043409;28;20458;-47
2022/04/21 12:46:56;;;;;;;6.00;4.60;;;;;;;;;;5043662;28;20037;-47
2022/04/21 12:49:22;;;;;;;4.93;4.45;;;;;;;;;;5042613;28;20488;-47
2022/04/21 12:51:49;;;;;;;5.95;5.07;;;;;;;;;;5050606;28;20028;-47
2022/04/21 12:54:26;;;;;;;6.43;5.63;;;18.70;99.90;;;;;;5046719;28;20059;-47
2022/04/21 12:56:54;;;;;;;17.05;11.95;;;18.60;99.90;;;;;;5041999;28;20033;-47
2022/04/21 12:59:20;;;;;;;9.57;8.35;;;18.70;99.90;;;;;;5041471;28;20056;-47
2022/04/21 13:01:45;;;;;;;10.82;9.32;;;18.60;99.90;;;;;;5072289;28;20041;-46
2022/04/21 13:04:11;;;;;;;7.80;6.97;;;18.60;99.90;;;;;;5085964;28;20123;-46
2022/04/21 13:06:37;;;;;;;6.85;5.65;;;18.60;99.90;;;;;;5087741;28;20035;-46
2022/04/21 13:09:03;;;;;;;8.25;5.88;;;18.50;99.90;;;;;;5090423;28;20553;-47
2022/04/21 13:11:28;;;;;;;6.10;5.32;;;18.70;99.90;;;;;;5087743;28;20025;-47
2022/04/21 13:13:55;;;;;;;8.05;5.80;;;18.40;99.90;;;;;;5092391;28;20392;-46
2022/04/21 13:16:21;;;;;;;6.82;5.28;;;18.60;99.90;;;;;;5093585;28;20471;-47
2022/04/21 13:18:47;;;;;;;6.10;5.40;;;18.60;99.90;;;;;;5086087;28;20031;-47
2022/04/21 13:23:56;;;;;;;6.47;5.10;;;18.90;99.90;;;;;;5090702;28;20118;-46
2022/04/21 13:26:28;;;;;;;6.68;5.05;;;18.70;99.90;;;;;;5093740;28;20110;-46
2022/04/21 13:28:56;;;;;;;5.93;5.07;;;18.70;99.90;;;;;;5085719;28;20039;-46
2022/04/21 13:34:05;;;;;;;5.95;4.82;;;18.70;99.90;;;;;;5090770;28;20464;-46
2022/04/21 13:36:31;;;;;;;7.35;5.43;;;18.70;99.90;;;;;;5086712;28;20107;-46
2022/04/21 13:38:58;;;;;;;6.57;5.47;;;18.80;99.90;;;;;;5089754;28;20024;-46
2022/04/21 13:41:24;;;;;;;6.25;5.30;;;18.70;99.90;;;;;;5088038;28;20040;-47
2022/04/21 13:43:50;;;;;;;7.30;5.65;;;18.70;99.90;;;;;;5088528;28;20558;-46
2022/04/21 13:46:15;;;;;;;6.80;5.90;;;18.70;99.90;;;;;;5054577;28;20048;-47
2022/04/21 13:48:41;;;;;;;6.82;5.57;;;18.70;99.90;;;;;;5087117;28;20047;-47
2022/04/21 13:51:07;;;;;;;6.53;5.20;;;18.80;99.90;;;;;;5090486;28;20108;-47
2022/04/21 13:53:33;;;;;;;7.03;6.03;;;19.00;99.90;;;;;;5084742;28;20243;-47
2022/04/21 13:56:06;;;;;;;9.65;6.03;;;;;;;;;;5079778;28;20122;-47
2022/04/21 13:58:32;;;;;;;8.35;6.53;;;;;;;;;;5091663;28;20032;-47
2022/04/21 14:00:58;;;;;;;8.30;4.85;;;;;;;;;;5093164;28;20177;-47
2022/04/21 14:03:24;;;;;;;6.72;5.30;;;;;;;;;;5084098;28;20775;-47
2022/04/21 14:05:50;;;;;;;7.15;5.78;;;;;;;;;;5084209;28;20111;-47